Flight Track Log - Related Links

Times and Time Zones

All times are in EDT time to prevent confusion due to time zone crossing. See the EJA929 flight status page for this flight to view local times or setup timezone preferences in your user account.

Time Position Orientation Groundspeed Altitude Reporting Facility
EDT Latitude Longitude Course Direction KTS MPH feet Rate Location/Type
Tue 04:00:41 PM 40.7781 -96.7958 221° Southwest 231 266 3,900  Level Minneapolis Center
Tue 04:01:43 PM 40.7183 -96.8492 214° Southwest 248 285 5,200 1,887 Climbing Minneapolis Center
Tue 04:02:45 PM 40.6450 -96.9133 214° Southwest 259 298 7,800 2,177 Climbing Minneapolis Center
Tue 04:03:47 PM 40.5836 -96.9861 222° Southwest 300 345 9,700 1,645 Climbing Minneapolis Center
Tue 04:04:49 PM 40.5744 -97.1014 264° West 318 366 11,200 1,355 Climbing Minneapolis Center
Tue 04:05:51 PM 40.5736 -97.2272 270° West 338 389 12,500 1,597 Climbing Minneapolis Center
Tue 04:06:53 PM 40.5694 -97.3817 268° West 359 413 14,500 1,887 Climbing Minneapolis Center
Tue 04:07:55 PM 40.5678 -97.5142 269° West 362 417 16,400 1,839 Climbing Minneapolis Center
Tue 04:08:57 PM 40.5658 -97.6458 269° West 361 415 18,300 1,776 Climbing Minneapolis Center
Tue 04:10:00 PM 40.5631 -97.7789 268° West 362 417 20,100 1,728 Climbing Minneapolis Center
Tue 04:11:02 PM 40.5597 -97.9131 268° West 364 419 21,900 1,548 Climbing Minneapolis Center
Tue 04:12:04 PM 40.5561 -98.0492 268° West 369 425 23,300 1,306 Climbing Minneapolis Center
Tue 04:13:06 PM 40.5539 -98.1936 269° West 384 442 24,600 1,403 Climbing Minneapolis Center
Tue 04:14:08 PM 40.5483 -98.3758 268° West 406 467 26,200 1,403 Climbing Minneapolis Center
Tue 04:15:10 PM 40.5439 -98.5317 268° West 418 481 27,500 1,258 Climbing Minneapolis Center
Tue 04:16:12 PM 40.5392 -98.6925 268° West 431 496 28,800 1,306 Climbing Minneapolis Center
Tue 04:17:14 PM 40.5344 -98.8561 268° West 440 506 30,200 1,306 Climbing Minneapolis Center
Tue 04:18:16 PM 40.5289 -99.0225 268° West 448 516 31,500 1,258 Climbing Minneapolis Center
Tue 04:19:18 PM 40.5236 -99.1931 268° West 455 524 32,800 1,125 Climbing Minneapolis Center
Tue 04:20:08 PM 40.5203 -99.2947 268° West 464 534 33,600 690 Climbing Denver Center
Tue 04:21:11 PM 40.5114 -99.5422 267° West 485 558 34,100 823 Climbing Denver Center
Tue 04:22:12 PM 40.4992 -99.7247 265° West 498 573 35,300 1,171 Climbing Denver Center
Tue 04:23:14 PM 40.4792 -99.8675 260° West 497 572 36,500 1,452 Climbing Denver Center
Tue 04:24:16 PM 40.4481 -100.0758 259° West 488 562 38,300 1,452 Climbing Denver Center
Tue 04:25:18 PM 40.4242 -100.2417 259° West 483 556 39,500 823 Climbing Denver Center
Tue 04:26:20 PM 40.3953 -100.4361 259° West 483 556 40,000 242 Climbing Denver Center
Tue 04:27:22 PM 40.3692 -100.6056 259° West 490 564 40,000  Level Denver Center
Tue 04:28:23 PM 40.3392 -100.8053 259° West 496 571 40,000  Level Denver Center
Tue 04:29:37 PM 40.3133 -100.9775 259° West 500 575 40,000  Level Denver Center
Tue 04:30:40 PM 40.2786 -101.2044 259° West 496 571 40,000  Level Denver Center
Tue 04:31:41 PM 40.2511 -101.3761 258° West 501 577 40,000  Level Denver Center
Tue 04:32:55 PM 40.2206 -101.5753 259° West 499 574 40,000  Level Denver Center
Tue 04:33:58 PM 40.1878 -101.7728 258° West 498 573 40,000  Level Denver Center
Tue 04:35:00 PM 40.1553 -101.9703 258° West 498 573 40,000  Level Denver Center
Tue 04:36:02 PM 40.1281 -102.1397 258° West 498 573 40,000  Level Denver Center
Tue 04:37:03 PM 40.0942 -102.3369 257° West 499 574 40,000  Level Denver Center
Tue 04:38:05 PM 40.0672 -102.5058 258° West 497 572 40,000  Level Denver Center
Tue 04:39:07 PM 40.0328 -102.7025 257° West 497 572 40,000  Level Denver Center
Tue 04:40:09 PM 40.0011 -102.8856 257° West 498 573 40,000  Level Denver Center
Tue 04:41:11 PM 39.9706 -103.0611 257° West 498 573 40,000  Level Denver Center
Tue 04:42:13 PM 39.9414 -103.2369 258° West 497 572 40,000  Level Denver Center
Tue 04:43:15 PM 39.9100 -103.4119 257° West 497 572 40,000 435 Level Denver Center
Tue 04:44:17 PM 39.8794 -103.5839 257° West 490 564 40,900 871 Climbing Denver Center
Tue 04:45:19 PM 39.8497 -103.7539 257° West 485 558 41,800 823 Climbing Denver Center
Tue 04:46:21 PM 39.8261 -103.8853 257° West 465 535 42,600 581 Climbing Denver Center
Tue 04:47:23 PM 39.7839 -104.1183 257° West 472 543 43,000 194 Climbing Denver Center
Tue 04:48:25 PM 39.7522 -104.2847 256° West 475 547 43,000  Level Denver Center
Tue 04:49:27 PM 39.7203 -104.4561 256° West 487 560 43,000  Level Denver Center
Tue 04:50:29 PM 39.6942 -104.6217 258° West 474 545 43,000  Level Denver Center
Tue 04:51:31 PM 39.6758 -104.7947 262° West 506 582 43,000  Level Denver Center
Tue 04:52:33 PM 39.6514 -104.9997 261° West 481 554 43,000  Level Denver Center
Tue 04:53:47 PM 39.6322 -105.1733 262° West 486 559 43,000  Level Denver Center
Tue 04:54:49 PM 39.6103 -105.3797 262° West 479 551 43,000  Level Denver Center
Tue 04:55:51 PM 39.5919 -105.5519 262° West 478 550 43,000  Level Denver Center
Tue 04:56:53 PM 39.5686 -105.7608 262° West 484 557 43,000  Level Denver Center
Tue 04:57:55 PM 39.5519 -105.9300 263° West 471 542 43,000  Level Denver Center
Tue 04:58:58 PM 39.5317 -106.1031 261° West 487 560 43,000  Level Denver Center
Tue 05:00:00 PM 39.5136 -106.2658 262° West 487 560 43,000  Level Denver Center
Tue 05:01:02 PM 39.4931 -106.4383 261° West 485 558 43,000  Level Denver Center
Tue 05:02:04 PM 39.4697 -106.6353 261° West 484 557 43,000  Level Denver Center
Tue 05:03:06 PM 39.4444 -106.8267 260° West 483 556 43,000  Level Denver Center
Tue 05:04:08 PM 39.4161 -106.9897 257° West 484 557 43,000  Level Denver Center
Tue 05:05:10 PM 39.3689 -107.1739 252° West 483 556 43,000  Level Denver Center
Tue 05:06:12 PM 39.3283 -107.3322 252° West 486 559 43,000  Level Denver Center
Tue 05:07:14 PM 39.2886 -107.4894 252° West 481 554 43,000  Level Denver Center
Tue 05:08:16 PM 39.2408 -107.6753 252° West 484 557 43,000  Level Denver Center
Tue 05:09:18 PM 39.1997 -107.8328 251° West 484 557 43,000  Level Denver Center
Tue 05:10:20 PM 39.1528 -108.0158 252° West 481 554 43,000  Level Denver Center
Tue 05:11:22 PM 39.1125 -108.1733 252° West 481 554 43,000  Level Denver Center
Tue 05:12:24 PM 39.0619 -108.3608 251° West 495 570 43,000  Level Denver Center
Tue 05:13:26 PM 39.0194 -108.5189 251° West 492 566 43,000  Level Denver Center
Tue 05:14:28 PM 38.9717 -108.7033 252° West 481 554 43,000  Level Denver Center
Tue 05:15:30 PM 38.9364 -108.8331 251° West 479 551 43,000  Level Denver Center
Tue 05:16:32 PM 38.8881 -109.0136 251° West 478 550 43,000  Level Denver Center
Tue 05:17:34 PM 38.8386 -109.1944 251° West 478 550 43,000  Level Denver Center
Tue 05:18:36 PM 38.8036 -109.3225 251° West 478 550 43,000  Level Denver Center
Tue 05:19:38 PM 38.7475 -109.5289 251° West 479 551 43,000  Level Denver Center
Tue 05:20:41 PM 38.7044 -109.6817 250° West 475 547 43,000  Level Denver Center
Tue 05:21:43 PM 38.6544 -109.8611 250° West 480 552 43,000  Level Denver Center
Tue 05:22:26 PM 38.6264 -109.9656 251° West 481 554 43,000  Level Salt Lake Center
Tue 05:23:28 PM 38.5556 -110.1342 242° Southwest 481 554 43,000  Level Salt Lake Center
Tue 05:24:30 PM 38.4861 -110.2711 237° Southwest 482 555 43,000  Level Salt Lake Center
Tue 05:25:32 PM 38.4050 -110.4314 237° Southwest 481 554 43,000  Level Salt Lake Center
Tue 05:26:34 PM 38.3353 -110.5689 237° Southwest 481 554 43,000  Level Salt Lake Center
Tue 05:27:36 PM 38.2536 -110.7286 237° Southwest 483 556 43,000  Level Salt Lake Center
Tue 05:28:38 PM 38.1842 -110.8642 237° Southwest 479 551 43,000  Level Salt Lake Center
Tue 05:29:40 PM 38.1033 -111.0206 237° Southwest 480 552 43,000  Level Salt Lake Center
Tue 05:30:42 PM 38.0553 -111.1800 249° West 485 558 43,000  Level Salt Lake Center
Tue 05:31:44 PM 38.0092 -111.3386 250° West 482 555 43,000  Level Salt Lake Center
Tue 05:32:46 PM 37.9608 -111.4961 249° West 481 554 43,000  Level Salt Lake Center
Tue 05:33:48 PM 37.9036 -111.6489 245° Southwest 482 555 43,000  Level Salt Lake Center
Tue 05:34:50 PM 37.8269 -111.7856 235° Southwest 477 549 43,000  Level Salt Lake Center
Tue 05:35:52 PM 37.7336 -111.9492 234° Southwest 478 550 43,000  Level Salt Lake Center
Tue 05:36:54 PM 37.6533 -112.0875 234° Southwest 485 558 43,000  Level Salt Lake Center
Tue 05:37:56 PM 37.5747 -112.2250 234° Southwest 483 556 43,000  Level Salt Lake Center
Tue 05:38:58 PM 37.4953 -112.3617 234° Southwest 482 555 43,000  Level Salt Lake Center
Tue 05:40:00 PM 37.4156 -112.4992 234° Southwest 482 555 43,000  Level Salt Lake Center
Tue 05:41:03 PM 37.3508 -112.6097 234° Southwest 484 557 43,000  Level Los Angeles Center
Tue 05:42:07 PM 37.2533 -112.7750 233° Southwest 484 557 43,000  Level Los Angeles Center
Tue 05:43:08 PM 37.1739 -112.9128 234° Southwest 484 557 43,000  Level Los Angeles Center
Tue 05:44:10 PM 37.0775 -113.0769 234° Southwest 485 558 43,000  Level Los Angeles Center
Tue 05:45:12 PM 36.9964 -113.2131 233° Southwest 488 562 43,000  Level Los Angeles Center
Tue 05:46:14 PM 36.9156 -113.3494 233° Southwest 488 562 43,000  Level Los Angeles Center
Tue 05:47:16 PM 36.8342 -113.4861 233° Southwest 491 565 43,000  Level Los Angeles Center
Tue 05:48:18 PM 36.7528 -113.6217 233° Southwest 491 565 43,000  Level Los Angeles Center
Tue 05:49:21 PM 36.6706 -113.7564 233° Southwest 489 563 43,000  Level Los Angeles Center
Tue 05:50:23 PM 36.5725 -113.9208 233° Southwest 492 566 43,000  Level Los Angeles Center
Tue 05:51:27 PM 36.5014 -114.0361 233° Southwest 491 565 43,000  Level Los Angeles Center
Tue 05:52:27 PM 36.4039 -114.1992 233° Southwest 489 563 43,000  Level Los Angeles Center
Tue 05:53:29 PM 36.3214 -114.3333 233° Southwest 489 563 43,000  Level Los Angeles Center
Tue 05:54:31 PM 36.2392 -114.4675 233° Southwest 489 563 43,000  Level Los Angeles Center
Tue 05:55:33 PM 36.1564 -114.6008 232° Southwest 486 559 43,000 -240 Level Los Angeles Center
Tue 05:56:36 PM 36.0744 -114.7347 233° Southwest 487 560 42,500 -1,056 Descending Los Angeles Center
Tue 05:57:38 PM 35.9903 -114.8669 232° Southwest 487 560 40,800 -1,839 Descending Los Angeles Center
Tue 05:58:40 PM 35.8858 -115.0111 228° Southwest 469 540 38,700 -1,355 Descending Los Angeles Center
Tue 05:59:42 PM 35.7983 -115.1294 228° Southwest 466 536 38,000 -339 Descending Los Angeles Center
Tue 06:00:44 PM 35.7092 -115.2519 228° Southwest 475 547 38,000  Level Los Angeles Center
Tue 06:01:46 PM 35.6172 -115.3761 228° Southwest 483 556 38,000  Level Los Angeles Center
Tue 06:02:48 PM 35.5253 -115.4992 227° Southwest 487 560 38,000  Level Los Angeles Center
Tue 06:03:50 PM 35.4303 -115.6286 228° Southwest 489 563 38,000  Level Los Angeles Center
Tue 06:04:52 PM 35.3372 -115.7525 227° Southwest 492 566 38,000 -919 Level Los Angeles Center
Tue 06:05:54 PM 35.2458 -115.8719 227° Southwest 485 558 36,100 -2,129 Descending Los Angeles Center
Tue 06:06:56 PM 35.1556 -115.9914 227° Southwest 478 550 33,600 -2,516 Descending Los Angeles Center
Tue 06:07:58 PM 35.0622 -116.1158 228° Southwest 491 565 30,900 -2,855 Descending Los Angeles Center
Tue 06:09:00 PM 34.9481 -116.2650 227° Southwest 499 574 27,700 -2,855 Descending Los Angeles Center
Tue 06:10:02 PM 34.8531 -116.3914 228° Southwest 488 562 25,000 -2,129 Descending Los Angeles Center
Tue 06:11:04 PM 34.7981 -116.4822 234° Southwest 457 526 23,300 -1,887 Descending Los Angeles Center
Tue 06:12:06 PM 34.7800 -116.6283 261° West 441 507 21,100 -1,597 Descending Los Angeles Center
Tue 06:13:08 PM 34.7217 -116.7869 246° West 425 489 20,000 -528 Descending Los Angeles Center
Tue 06:14:11 PM 34.6997 -116.9294 259° West 431 496 20,000 -768 Level Los Angeles Center
Tue 06:15:13 PM 34.6903 -117.1086 266° West 442 509 18,400 -1,500 Descending Los Angeles Center
Tue 06:16:15 PM 34.6808 -117.2589 266° West 445 512 16,900 -1,440 Descending Los Angeles Center
Tue 06:17:18 PM 34.6722 -117.4039 266° West 435 501 15,400 -1,500 Descending Los Angeles Center
Tue 06:18:19 PM 34.6642 -117.5436 266° West 418 481 13,800 -1,512 Descending Los Angeles Center
Tue 06:19:21 PM 34.6564 -117.6703 266° West 383 441 12,300 -878 Descending Los Angeles Center
Tue 06:20:22 PM 34.6492 -117.7761 265° West 386 444 12,000 -145 Descending Los Angeles Center
Tue 06:21:25 PM 34.6394 -117.9408 266° West 405 466 12,000  Level Los Angeles Center
Tue 06:22:27 PM 34.6283 -118.0767 264° West 314 361 12,000 -339 Level Los Angeles Center
Tue 06:23:29 PM 34.6100 -118.1611 255° West 291 335 11,300 -1,306 Descending Los Angeles Center
Tue 06:24:31 PM 34.5836 -118.2797 255° West 304 350 9,300 -1,597 Descending Los Angeles Center
Tue 06:25:33 PM 34.5636 -118.3678 255° West 279 321 8,000 -629 Descending Los Angeles Center
Tue 06:26:35 PM 34.5433 -118.4581 255° West 280 322 8,000 48 Level Los Angeles Center
Tue 06:27:37 PM 34.5222 -118.5514 255° West 287 330 8,100 -48 Climbing Los Angeles Center
Tue 06:28:39 PM 34.4633 -118.5800 202° Southwest 270 311 7,900 -864 Descending Los Angeles Center
Tue 06:29:42 PM 34.3972 -118.5386 153° Southeast 264 304 6,300 -1,737 Descending Los Angeles Center
Tue 06:30:33 PM 34.3333 -118.4833 144° Southeast 254 292 4,600 -1,784 Descending Southern California TRACON
Tue 06:31:33 PM 34.3000 -118.4167 121° Southeast 238 274 3,000 -950 Descending Southern California TRACON
Tue 06:32:33 PM 34.2667 -118.3833 140° Southeast 164 189 2,700 -850 Descending Southern California TRACON
Tue 06:33:33 PM 34.2333 -118.3667 158° South 130 150 1,300 -691 Descending Southern California TRACON
Tue 06:34:52 PM 34.1939 -118.3553 167° South 149 171 1,100 -152 Descending Los Angeles Center
Tue 06:36:00 PM 34.2000 -118.3500 North  Level FlightAware Approximate

Login

Don't have an account? Register now (free) for customized features, flight alerts, and more!